Time;durP1;ratioP1;P1;durP2;ratioP2;P2;SDS_P1;SDS_P2;PMS_P1;PMS_P2;Temp;Humidity;BMP_temperature;BMP_pressure;BME280_temperature;BME280_humidity;BME280_pressure;Samples;Min_cycle;Max_cycle;Signal;HPM_P1;HPM_P2
2023/05/07 00:00:59;;;;;;;20.40;18.10;;;;;;;10.98;100.00;99049.32;109446;1254;58206;-72
2023/05/07 00:03:26;;;;;;;17.90;15.70;;;;;;;10.97;100.00;99051.73;109478;1252;65283;-72
2023/05/07 00:05:55;;;;;;;18.00;16.10;;;;;;;10.95;100.00;99053.80;109520;1254;59073;-72
2023/05/07 00:08:21;;;;;;;19.50;16.00;;;;;;;10.94;100.00;99054.23;109458;1254;64155;-72
2023/05/07 00:10:48;;;;;;;17.50;15.80;;;;;;;10.93;100.00;99055.40;109490;1252;58190;-71
2023/05/07 00:13:15;;;;;;;17.70;15.90;;;;;;;10.90;100.00;99052.90;109460;1252;58080;-71
2023/05/07 00:15:41;;;;;;;19.80;17.80;;;;;;;10.88;100.00;99054.67;109467;1254;65259;-72
2023/05/07 00:18:08;;;;;;;19.10;17.10;;;;;;;10.87;100.00;99055.64;109496;1253;58130;-71
2023/05/07 00:20:34;;;;;;;18.50;16.70;;;;;;;10.87;100.00;99059.34;109338;1254;58496;-71
2023/05/07 00:23:01;;;;;;;19.20;17.00;;;;;;;10.87;100.00;99059.52;109442;1252;59969;-72
2023/05/07 00:25:27;;;;;;;19.80;17.70;;;;;;;10.87;100.00;99058.29;109478;1255;58063;-72
2023/05/07 00:27:54;;;;;;;20.20;17.90;;;;;;;10.87;100.00;99060.05;109505;1253;58523;-71
2023/05/07 00:30:21;;;;;;;21.10;17.90;;;;;;;10.86;100.00;99058.02;109472;1253;60169;-72
2023/05/07 00:32:48;;;;;;;19.40;17.40;;;;;;;10.85;100.00;99057.71;109254;1253;62837;-72
2023/05/07 00:35:15;;;;;;;19.30;17.30;;;;;;;10.85;100.00;99055.59;109307;1254;58223;-71
2023/05/07 00:37:41;;;;;;;18.90;17.00;;;;;;;10.84;100.00;99055.99;109455;1253;58166;-71
2023/05/07 00:40:08;;;;;;;19.20;17.10;;;;;;;10.83;100.00;99060.34;109439;1254;65285;-72
2023/05/07 00:42:35;;;;;;;19.90;18.00;;;;;;;10.83;100.00;99060.84;109483;1252;58948;-73
2023/05/07 00:45:02;;;;;;;20.10;18.10;;;;;;;10.82;100.00;99059.54;109361;1253;63080;-72
2023/05/07 00:47:29;;;;;;;18.80;17.00;;;;;;;10.82;100.00;99061.32;109261;1252;58193;-72
2023/05/07 00:49:57;;;;;;;19.90;17.90;;;;;;;10.81;100.00;99061.52;109510;1253;58066;-72
2023/05/07 00:52:26;;;;;;;20.70;18.60;;;;;;;10.80;100.00;99064.26;109462;1253;65217;-72
2023/05/07 00:54:53;;;;;;;22.80;20.50;;;;;;;10.80;100.00;99065.17;109451;1254;58890;-72
2023/05/07 00:57:21;;;;;;;23.10;20.30;;;;;;;10.79;100.00;99068.23;109416;1252;64090;-71
2023/05/07 00:59:48;;;;;;;23.10;20.40;;;;;;;10.79;100.00;99069.64;109424;1253;58185;-71
2023/05/07 01:02:15;;;;;;;21.90;19.70;;;;;;;10.79;100.00;99067.02;109469;1253;58246;-71
2023/05/07 01:04:41;;;;;;;23.00;20.60;;;;;;;10.77;100.00;99068.38;109474;1252;64940;-71
2023/05/07 01:07:08;;;;;;;23.00;20.70;;;;;;;10.76;100.00;99069.48;109498;1252;58447;-71
2023/05/07 01:09:36;;;;;;;23.70;20.80;;;;;;;10.76;100.00;99067.91;109335;1253;64046;-71
2023/05/07 01:12:04;;;;;;;22.50;20.10;;;;;;;10.75;100.00;99073.64;109423;1252;58273;-72
2023/05/07 01:14:32;;;;;;;23.90;21.40;;;;;;;10.75;100.00;99072.77;109466;1252;58081;-72
2023/05/07 01:16:59;;;;;;;24.30;21.10;;;;;;;10.72;100.00;99074.18;109498;1252;65541;-72
2023/05/07 01:19:26;;;;;;;22.60;20.20;;;;;;;10.69;100.00;99076.70;109476;1252;58219;-72
2023/05/07 01:22:01;;;;;;;24.30;21.70;;;;;;;10.67;100.00;99071.89;109493;1253;64041;-72
2023/05/07 01:24:27;;;;;;;22.60;20.20;;;;;;;10.65;100.00;99073.28;109447;1252;58264;-72
2023/05/07 01:26:54;;;;;;;22.40;19.80;;;;;;;10.63;100.00;99075.00;109485;1252;58219;-72
2023/05/07 01:29:20;;;;;;;21.50;19.40;;;;;;;10.62;100.00;99073.61;109536;1252;63685;-72
2023/05/07 01:31:47;;;;;;;22.40;20.20;;;;;;;10.62;100.00;99072.26;109443;1253;58261;-71
2023/05/07 01:34:17;;;;;;;22.00;19.70;;;;;;;10.60;100.00;99070.21;109463;1252;64048;-70
2023/05/07 01:36:44;;;;;;;21.60;19.40;;;;;;;10.60;100.00;99067.57;109424;1253;58349;-71
2023/05/07 01:39:12;;;;;;;22.50;20.30;;;;;;;10.60;100.00;99069.88;109365;1252;58368;-71
2023/05/07 01:41:39;;;;;;;20.30;18.40;;;;;;;10.60;100.00;99066.83;109515;1253;66377;-72
2023/05/07 01:44:06;;;;;;;22.50;20.30;;;;;;;10.60;100.00;99066.82;109428;1252;58917;-72
2023/05/07 01:46:33;;;;;;;18.60;16.70;;;;;;;10.59;100.00;99069.38;109451;1253;64290;-72
2023/05/07 01:48:59;;;;;;;20.30;18.10;;;;;;;10.58;100.00;99069.31;109279;1252;58236;-71
2023/05/07 01:51:26;;;;;;;20.30;18.30;;;;;;;10.56;100.00;99066.77;109467;1252;58235;-71
2023/05/07 01:53:53;;;;;;;20.70;18.60;;;;;;;10.54;100.00;99073.42;109449;1252;65521;-71
2023/05/07 01:56:20;;;;;;;18.40;16.50;;;;;;;10.53;100.00;99077.06;109463;1251;60150;-71
2023/05/07 01:58:47;;;;;;;19.10;17.20;;;;;;;10.52;100.00;99079.07;109343;1252;64494;-71
2023/05/07 02:01:14;;;;;;;18.90;16.90;;;;;;;10.52;100.00;99079.08;109461;1251;58250;-71
2023/05/07 02:03:40;;;;;;;18.30;16.50;;;;;;;10.50;100.00;99080.06;109408;1254;58273;-73
2023/05/07 02:06:07;;;;;;;17.80;16.10;;;;;;;10.50;100.00;99078.33;109333;1253;65237;-71
2023/05/07 02:08:34;;;;;;;18.70;16.60;;;;;;;10.48;100.00;99079.48;109509;1253;60107;-71
2023/05/07 02:11:01;;;;;;;19.60;17.50;;;;;;;10.48;100.00;99077.73;109456;1252;64041;-72
2023/05/07 02:13:30;;;;;;;26.60;20.60;;;;;;;10.48;100.00;99084.64;109484;1252;58464;-71
2023/05/07 02:15:57;;;;;;;24.70;21.10;;;;;;;10.44;100.00;99084.41;109423;1252;58208;-71
2023/05/07 02:18:24;;;;;;;27.80;22.20;;;;;;;10.37;100.00;99087.14;109478;1253;65319;-71
2023/05/07 02:20:50;;;;;;;26.90;22.30;;;;;;;10.32;100.00;99084.78;109449;1254;58954;-71
2023/05/07 02:23:17;;;;;;;25.90;21.40;;;;;;;10.28;100.00;99086.85;109413;1253;62480;-71
2023/05/07 02:25:43;;;;;;;24.60;20.90;;;;;;;10.24;100.00;99088.33;109472;1253;58167;-72
2023/05/07 02:28:10;;;;;;;24.10;21.50;;;;;;;10.19;100.00;99093.05;109496;1252;58081;-71
2023/05/07 02:30:37;;;;;;;25.50;20.50;;;;;;;10.13;100.00;99094.86;109466;1253;64008;-71
2023/05/07 02:33:03;;;;;;;25.70;20.90;;;;;;;10.08;100.00;99098.01;109167;1256;60195;-71
2023/05/07 02:35:30;;;;;;;25.00;21.20;;;;;;;10.07;100.00;99102.35;109201;1256;64211;-71
2023/05/07 02:37:56;;;;;;;25.40;21.50;;;;;;;10.06;100.00;99098.34;109167;1256;58305;-72
2023/05/07 02:40:23;;;;;;;25.50;22.10;;;;;;;10.04;100.00;99098.24;109201;1256;58271;-71
2023/05/07 02:42:49;;;;;;;23.50;21.00;;;;;;;10.00;100.00;99100.63;109231;1256;65224;-70
2023/05/07 02:45:16;;;;;;;24.90;20.40;;;;;;;9.98;100.00;99095.48;109222;1256;58682;-71
2023/05/07 02:47:42;;;;;;;22.00;19.60;;;;;;;9.95;100.00;99098.88;109179;1255;64071;-71
2023/05/07 02:50:09;;;;;;;25.50;20.80;;;;;;;9.91;100.00;99097.13;109210;1255;58323;-71
2023/05/07 02:52:36;;;;;;;24.40;20.70;;;;;;;9.88;100.00;99101.73;109205;1255;58242;-71
2023/05/07 02:55:02;;;;;;;25.50;22.10;;;;;;;9.84;100.00;99105.89;109079;1255;65096;-71
2023/05/07 02:57:29;;;;;;;24.80;21.00;;;;;;;9.81;100.00;99101.47;109234;1255;60063;-71
2023/05/07 02:59:57;;;;;;;24.70;20.30;;;;;;;9.80;100.00;99102.98;109199;1256;62778;-71
2023/05/07 03:02:24;;;;;;;22.60;19.70;;;;;;;9.77;100.00;99100.46;109227;1255;58268;-71
2023/05/07 03:04:51;;;;;;;20.80;18.60;;;;;;;9.74;100.00;99099.06;109425;1252;58211;-71
2023/05/07 03:07:18;;;;;;;22.30;19.20;;;;;;;9.73;100.00;99101.66;109478;1251;64087;-70
2023/05/07 03:09:45;;;;;;;21.00;18.70;;;;;;;9.73;100.00;99102.22;109170;1253;58960;-71
2023/05/07 03:12:11;;;;;;;21.90;19.50;;;;;;;9.71;100.00;99101.25;109428;1252;64037;-71
2023/05/07 03:14:38;;;;;;;19.80;17.70;;;;;;;9.70;100.00;99104.84;109445;1252;58286;-71
2023/05/07 03:17:04;;;;;;;19.20;17.20;;;;;;;9.68;100.00;99105.63;109464;1252;58061;-71
2023/05/07 03:19:31;;;;;;;20.50;18.20;;;;;;;9.67;100.00;99108.17;109470;1252;58599;-71
2023/05/07 03:21:57;;;;;;;20.10;17.80;;;;;;;9.66;100.00;99112.52;109494;1251;58909;-72
2023/05/07 03:24:24;;;;;;;19.70;17.60;;;;;;;9.66;100.00;99113.77;109300;1253;62847;-72
2023/05/07 03:26:50;;;;;;;20.80;18.40;;;;;;;9.65;100.00;99120.00;109407;1252;58255;-71
2023/05/07 03:29:17;;;;;;;20.60;18.60;;;;;;;9.64;100.00;99122.59;109293;1252;58352;-71
2023/05/07 03:31:44;;;;;;;22.00;19.60;;;;;;;9.62;100.00;99125.17;109457;1252;65224;-72
2023/05/07 03:34:10;;;;;;;22.70;20.30;;;;;;;9.61;100.00;99126.30;109474;1252;58908;-72
2023/05/07 03:36:36;;;;;;;23.10;20.40;;;;;;;9.61;100.00;99126.30;109476;1252;58227;-72
2023/05/07 03:39:03;;;;;;;20.60;17.70;;;;;;;9.60;100.00;99129.90;109455;1252;58195;-72
2023/05/07 03:41:29;;;;;;;19.80;17.50;;;;;;;9.57;100.00;99132.05;109471;1252;58261;-72
2023/05/07 03:43:56;;;;;;;19.30;17.20;;;;;;;9.55;100.00;99137.70;109456;1252;64015;-71
2023/05/07 03:46:22;;;;;;;22.30;17.10;;;;;;;9.53;100.00;99137.11;109492;1252;60111;-72
2023/05/07 03:48:49;;;;;;;19.10;17.20;;;;;;;9.51;100.00;99140.44;109458;1252;63998;-71
2023/05/07 03:51:15;;;;;;;17.50;15.70;;;;;;;9.50;100.00;99139.93;109464;1252;58135;-72
2023/05/07 03:53:42;;;;;;;17.60;15.80;;;;;;;9.50;100.00;99141.00;109472;1252;58112;-72
2023/05/07 03:56:08;;;;;;;17.30;15.60;;;;;;;9.51;100.00;99142.35;109494;1252;58523;-72
2023/05/07 03:58:38;;;;;;;18.60;16.80;;;;;;;9.51;100.00;99145.69;109521;1252;58209;-72
2023/05/07 04:01:04;;;;;;;17.30;15.60;;;;;;;9.51;100.00;99149.82;109177;1251;62822;-73
2023/05/07 04:03:31;;;;;;;16.40;14.80;;;;;;;9.51;100.00;99154.08;109449;1252;58655;-71
2023/05/07 04:05:57;;;;;;;15.50;14.00;;;;;;;9.50;100.00;99153.07;109173;1252;58237;-71
2023/05/07 04:08:23;;;;;;;15.00;13.40;;;;;;;9.49;100.00;99158.30;109469;1252;64948;-71
2023/05/07 04:10:55;;;;;;;14.30;12.90;;;;;;;9.49;100.00;99162.91;109496;1252;58173;-71
2023/05/07 04:13:21;;;;;;;12.40;11.30;;;;;;;9.46;100.00;99163.20;109421;1252;64062;-72
2023/05/07 04:15:49;;;;;;;12.10;10.80;;;;;;;9.44;100.00;99161.18;109452;1252;58998;-71
2023/05/07 04:18:15;;;;;;;11.80;10.60;;;;;;;9.44;100.00;99164.55;109212;1252;59063;-71
2023/05/07 04:20:41;;;;;;;12.10;10.90;;;;;;;9.44;100.00;99168.45;109466;1252;65994;-72
2023/05/07 04:23:08;;;;;;;12.40;11.00;;;;;;;9.43;100.00;99172.08;109540;1252;58979;-72
2023/05/07 04:25:35;;;;;;;12.90;11.60;;;;;;;9.44;100.00;99179.98;109462;1252;71788;-72
2023/05/07 04:28:01;;;;;;;12.60;11.30;;;;;;;9.45;100.00;99178.36;109460;1252;58951;-72
2023/05/07 04:30:28;;;;;;;13.30;10.90;;;;;;;9.44;100.00;99174.16;109461;1252;59191;-73
2023/05/07 04:32:54;;;;;;;12.30;11.10;;;;;;;9.43;100.00;99178.12;109358;1252;66018;-73
2023/05/07 04:35:21;;;;;;;12.10;11.00;;;;;;;9.44;100.00;99178.91;109367;1251;58939;-71
2023/05/07 04:37:47;;;;;;;11.70;10.60;;;;;;;9.47;100.00;99183.90;109197;1251;62881;-72
2023/05/07 04:40:14;;;;;;;12.80;11.50;;;;;;;9.51;100.00;99189.92;109439;1251;59116;-71
2023/05/07 04:42:41;;;;;;;13.10;11.90;;;;;;;9.53;100.00;99192.95;109343;1252;59111;-71
2023/05/07 04:45:08;;;;;;;12.80;11.50;;;;;;;9.53;100.00;99198.66;109484;1252;66076;-71
2023/05/07 04:47:35;;;;;;;13.20;12.00;;;;;;;9.51;100.00;99202.88;109497;1251;59041;-72
2023/05/07 04:50:01;;;;;;;14.10;12.80;;;;;;;9.48;100.00;99208.68;109426;1251;64058;-71
2023/05/07 04:52:28;;;;;;;15.70;14.20;;;;;;;9.47;100.00;99208.95;109475;1251;58943;-71
2023/05/07 04:54:54;;;;;;;16.10;14.50;;;;;;;9.42;100.00;99211.30;109349;1252;59038;-71
2023/05/07 04:57:21;;;;;;;16.60;15.10;;;;;;;9.39;100.00;99218.61;109468;1252;66035;-72
2023/05/07 04:59:47;;;;;;;16.80;15.10;;;;;;;9.38;100.00;99225.79;109204;1252;59007;-72
2023/05/07 05:02:15;;;;;;;18.30;15.80;;;;;;;9.35;100.00;99224.86;109483;1252;58969;-72
2023/05/07 05:04:42;;;;;;;18.10;16.00;;;;;;;9.31;100.00;99225.48;109428;1252;59111;-71
2023/05/07 05:07:08;;;;;;;14.90;12.90;;;;;;;9.28;100.00;99229.75;109194;1252;59102;-72
2023/05/07 05:09:35;;;;;;;16.60;13.70;;;;;;;9.25;100.00;99230.42;109464;1252;58971;-72
2023/05/07 05:12:02;;;;;;;18.60;14.20;;;;;;;9.23;100.00;99231.02;109166;1252;59212;-72
2023/05/07 05:14:29;;;;;;;16.00;14.30;;;;;;;9.23;100.00;99236.38;109280;1253;62819;-72
2023/05/07 05:16:55;;;;;;;19.60;15.90;;;;;;;9.23;100.00;99234.58;109366;1252;59018;-74
2023/05/07 05:19:22;;;;;;;17.80;14.80;;;;;;;9.24;100.00;99237.73;109449;1252;59060;-71
2023/05/07 05:21:48;;;;;;;16.80;14.20;;;;;;;9.22;100.00;99238.19;109440;1252;59503;-71
2023/05/07 05:24:15;;;;;;;21.70;14.60;;;;;;;9.19;100.00;99245.84;109468;1251;58914;-72
2023/05/07 05:26:41;;;;;;;15.90;13.30;;;;;;;9.18;100.00;99248.38;109466;1251;59051;-71
2023/05/07 05:29:08;;;;;;;16.60;13.40;;;;;;;9.16;100.00;99247.75;109446;1252;59288;-72
2023/05/07 05:31:35;;;;;;;13.40;11.90;;;;;;;9.15;100.00;99250.68;109452;1251;59158;-72
2023/05/07 05:34:02;;;;;;;14.80;12.50;;;;;;;9.12;100.00;99257.23;109475;1252;64897;-72
2023/05/07 05:36:29;;;;;;;12.60;11.00;;;;;;;9.07;100.00;99261.92;109465;1252;59838;-72
2023/05/07 05:38:55;;;;;;;15.40;11.80;;;;;;;9.04;100.00;99266.92;109473;1252;62869;-72
2023/05/07 05:41:22;;;;;;;16.10;11.50;;;;;;;9.01;100.00;99269.33;109450;1252;59161;-71
2023/05/07 05:43:48;;;;;;;14.70;10.60;;;;;;;9.00;100.00;99269.91;109479;1251;59603;-72
2023/05/07 05:46:15;;;;;;;11.00;9.90;;;;;;;8.99;100.00;99271.74;109426;1252;66056;-72
2023/05/07 05:48:41;;;;;;;13.40;10.10;;;;;;;8.99;100.00;99270.73;109488;1252;60112;-72
2023/05/07 05:51:08;;;;;;;10.50;9.30;;;;;;;8.98;100.00;99268.98;109474;1252;59748;-73
2023/05/07 05:53:35;;;;;;;11.10;9.60;;;;;;;8.97;100.00;99266.92;109496;1252;58971;-71
2023/05/07 05:56:01;;;;;;;13.70;10.10;;;;;;;8.96;100.00;99271.94;109465;1251;58948;-72
2023/05/07 05:58:28;;;;;;;14.00;10.20;;;;;;;8.94;100.00;99275.06;109494;1252;66026;-72
2023/05/07 06:00:54;;;;;;;14.00;9.80;;;;;;;8.95;100.00;99276.60;109498;1252;59014;-73
2023/05/07 06:03:21;;;;;;;16.90;10.10;;;;;;;8.95;100.00;99278.54;109480;1252;64053;-72
2023/05/07 06:05:47;;;;;;;12.40;9.20;;;;;;;8.96;100.00;99280.06;109461;1252;58979;-72
2023/05/07 06:08:14;;;;;;;11.80;9.60;;;;;;;8.97;100.00;99283.75;109499;1251;59035;-73
2023/05/07 06:10:41;;;;;;;12.00;8.10;;;;;;;8.98;100.00;99289.20;109330;1253;66028;-73
2023/05/07 06:13:07;;;;;;;11.00;6.90;;;;;;;8.96;100.00;99289.46;109446;1252;59031;-72
2023/05/07 06:15:34;;;;;;;8.70;6.90;;;;;;;8.93;100.00;99297.30;109466;1251;62838;-72
2023/05/07 06:18:00;;;;;;;15.30;7.80;;;;;;;8.87;100.00;99297.98;109488;1252;58945;-72
2023/05/07 06:20:27;;;;;;;9.80;6.60;;;;;;;8.84;100.00;99296.76;109440;1251;59086;-73
2023/05/07 06:22:53;;;;;;;8.90;6.80;;;;;;;8.80;100.00;99297.83;109463;1252;64511;-72
2023/05/07 06:25:20;;;;;;;7.20;5.90;;;;;;;8.76;100.00;99301.41;109488;1251;59097;-72
2023/05/07 06:27:46;;;;;;;7.90;5.90;;;;;;;8.74;100.00;99303.45;109269;1253;59405;-72
2023/05/07 06:30:13;;;;;;;9.20;6.00;;;;;;;8.73;100.00;99307.25;109467;1253;58962;-73
2023/05/07 06:32:40;;;;;;;10.50;6.70;;;;;;;8.70;100.00;99307.91;109283;1252;59119;-73
2023/05/07 06:35:07;;;;;;;7.40;5.80;;;;;;;8.67;100.00;99312.50;109465;1252;66011;-73
2023/05/07 06:37:34;;;;;;;5.90;5.30;;;;;;;8.65;100.00;99314.02;109452;1251;60157;-72
2023/05/07 06:40:00;;;;;;;7.60;5.50;;;;;;;8.62;100.00;99318.46;109472;1252;58982;-72
2023/05/07 06:42:27;;;;;;;8.30;6.00;;;;;;;8.61;100.00;99317.84;109300;1251;59066;-72
2023/05/07 06:44:53;;;;;;;8.90;6.20;;;;;;;8.64;100.00;99320.84;109444;1252;58951;-72
2023/05/07 06:47:20;;;;;;;7.50;6.10;;;;;;;8.66;100.00;99322.66;109481;1251;59315;-72
2023/05/07 06:49:46;;;;;;;7.80;5.40;;;;;;;8.67;100.00;99318.91;109400;1253;59283;-72
2023/05/07 06:52:13;;;;;;;6.00;5.00;;;;;;;8.64;100.00;99322.77;109435;1252;59036;-72
2023/05/07 06:54:39;;;;;;;7.20;5.20;;;;;;;8.61;100.00;99325.95;109422;1252;58959;-72
2023/05/07 06:57:06;;;;;;;8.90;5.50;;;;;;;8.61;100.00;99328.26;109486;1252;59486;-72
2023/05/07 06:59:32;;;;;;;6.70;5.70;;;;;;;8.58;100.00;99328.23;109472;1252;66071;-72
2023/05/07 07:01:59;;;;;;;6.50;5.60;;;;;;;8.56;100.00;99327.42;109470;1251;59254;-72
2023/05/07 07:04:25;;;;;;;7.00;5.50;;;;;;;8.59;100.00;99326.42;109289;1252;59152;-73
2023/05/07 07:06:54;;;;;;;6.20;5.60;;;;;;;8.62;100.00;99330.88;109454;1251;59202;-72
2023/05/07 07:09:20;;;;;;;6.30;5.10;;;;;;;8.65;100.00;99334.08;109172;1252;59141;-72
2023/05/07 07:11:47;;;;;;;4.80;4.40;;;;;;;8.61;100.00;99332.70;109416;1252;66080;-72
2023/05/07 07:14:14;;;;;;;6.70;4.10;;;;;;;8.53;100.00;99336.65;109463;1252;60124;-73
2023/05/07 07:16:40;;;;;;;4.70;4.30;;;;;;;8.51;100.00;99340.64;109505;1251;62849;-73
2023/05/07 07:19:07;;;;;;;5.30;4.80;;;;;;;8.54;100.00;99348.13;109462;1251;59191;-72
2023/05/07 07:21:33;;;;;;;6.30;5.00;;;;;;;8.56;100.00;99349.91;109506;1252;58995;-71
2023/05/07 07:24:00;;;;;;;8.80;5.80;;;;;;;8.58;100.00;99353.02;109449;1252;59223;-72
2023/05/07 07:26:26;;;;;;;5.50;3.70;;;;;;;8.57;100.00;99359.64;109451;1252;60130;-72
2023/05/07 07:28:53;;;;;;;6.20;4.80;;;;;;;8.54;100.00;99359.45;109329;1253;59059;-72
2023/05/07 07:31:19;;;;;;;5.70;4.30;;;;;;;8.50;100.00;99367.59;109446;1252;59009;-73
2023/05/07 07:33:46;;;;;;;5.90;4.40;;;;;;;8.49;100.00;99368.19;109469;1253;59047;-74
2023/05/07 07:36:12;;;;;;;4.30;3.80;;;;;;;8.50;100.00;99369.74;109272;1252;59019;-71
2023/05/07 07:38:39;;;;;;;4.00;3.60;;;;;;;8.51;100.00;99372.70;109446;1252;58934;-71
2023/05/07 07:41:08;;;;;;;4.90;4.40;;;;;;;8.52;100.00;99376.34;109486;1252;59304;-71
2023/05/07 07:43:35;;;;;;;4.40;3.70;;;;;;;8.54;100.00;99378.88;109441;1253;58964;-71
2023/05/07 07:46:02;;;;;;;5.00;4.50;;;;;;;8.56;100.00;99380.38;109420;1253;59008;-70
2023/05/07 07:48:28;;;;;;;4.80;4.10;;;;;;;8.60;100.00;99379.11;109194;1252;66042;-72
2023/05/07 07:50:55;;;;;;;5.00;4.60;;;;;;;8.65;100.00;99380.45;109507;1252;59228;-72
2023/05/07 07:53:21;;;;;;;6.00;4.10;;;;;;;8.69;100.00;99378.27;109484;1252;59131;-72
2023/05/07 07:55:48;;;;;;;4.90;4.50;;;;;;;8.73;100.00;99386.06;109416;1252;58982;-72
2023/05/07 07:58:14;;;;;;;5.60;5.00;;;;;;;8.69;100.00;99392.66;109472;1251;59063;-73
2023/05/07 08:00:41;;;;;;;5.50;4.20;;;;;;;8.69;100.00;99395.50;109429;1252;66022;-71
2023/05/07 08:03:10;;;;;;;4.10;3.80;;;;;;;8.72;100.00;99399.58;109428;1251;60148;-72
2023/05/07 08:05:38;;;;;;;5.10;4.60;;;;;;;8.76;100.00;99400.41;109480;1252;62883;-72
2023/05/07 08:08:05;;;;;;;4.70;4.30;;;;;;;8.77;100.00;99398.79;109443;1252;58914;-73
2023/05/07 08:10:34;;;;;;;4.00;3.70;;;;;;;8.75;100.00;99401.56;109471;1252;59168;-72
2023/05/07 08:13:03;;;;;;;5.30;4.70;;;;;;;8.77;100.00;99405.83;109470;1251;66036;-72
2023/05/07 08:15:30;;;;;;;5.00;4.40;;;;;;;8.86;100.00;99407.71;109470;1252;59030;-73
2023/05/07 08:18:02;;;;;;;4.50;4.10;;;;;;;8.95;100.00;99408.63;109433;1251;64027;-73
2023/05/07 08:20:29;;;;;;;5.50;4.80;;;;;;;8.98;100.00;99412.35;109377;1252;58931;-73
2023/05/07 08:22:56;;;;;;;5.70;5.10;;;;;;;9.00;100.00;99414.92;109463;1252;59014;-73
2023/05/07 08:25:22;;;;;;;5.50;5.00;;;;;;;8.99;100.00;99416.56;109454;1251;64836;-72
2023/05/07 08:27:49;;;;;;;5.70;5.10;;;;;;;8.98;100.00;99419.64;109443;1252;60148;-72
2023/05/07 08:30:15;;;;;;;5.00;4.40;;;;;;;9.00;100.00;99422.00;109460;1252;59489;-73
2023/05/07 08:32:42;;;;;;;3.80;3.40;;;;;;;9.04;100.00;99421.98;109489;1252;59105;-73
2023/05/07 08:35:09;;;;;;;3.40;3.10;;;;;;;9.11;100.00;99421.26;109496;1251;58961;-72
2023/05/07 08:37:35;;;;;;;3.20;2.90;;;;;;;9.12;100.00;99425.48;109341;1251;66007;-72
2023/05/07 08:40:02;;;;;;;3.70;3.20;;;;;;;9.11;100.00;99423.35;109473;1252;61271;-73
2023/05/07 08:42:30;;;;;;;3.30;3.00;;;;;;;9.10;100.00;99429.25;109472;1251;62839;-72
2023/05/07 08:44:59;;;;;;;3.60;3.30;;;;;;;9.11;100.00;99440.02;109448;1252;58992;-73
2023/05/07 08:47:45;;;;;;;3.10;2.90;;;;;;;9.15;100.00;99442.27;109497;1251;59023;-73
2023/05/07 08:50:11;;;;;;;3.80;2.70;;;;;;;9.23;100.00;99442.38;109469;1252;66039;-73
2023/05/07 08:52:40;;;;;;;3.80;2.60;;;;;;;9.32;100.00;99442.79;109430;1252;60144;-72
2023/05/07 08:55:07;;;;;;;2.70;2.50;;;;;;;9.40;100.00;99447.16;109359;1252;64080;-72
2023/05/07 08:57:34;;;;;;;3.30;2.70;;;;;;;9.46;100.00;99448.06;109326;1252;59175;-72
2023/05/07 09:00:02;;;;;;;2.90;2.50;;;;;;;9.54;100.00;99451.67;109441;1252;58979;-72
2023/05/07 09:02:29;;;;;;;3.30;3.10;;;;;;;9.56;100.00;99455.65;109190;1253;65970;-72
2023/05/07 09:04:56;;;;;;;2.90;2.50;;;;;;;9.58;100.00;99454.65;109520;1252;59012;-72
2023/05/07 09:07:22;;;;;;;2.80;2.50;;;;;;;9.68;100.00;99454.84;109072;1256;59080;-72
2023/05/07 09:09:49;;;;;;;2.80;2.60;;;;;;;9.71;100.00;99457.88;109097;1256;59018;-74
2023/05/07 09:12:17;;;;;;;3.30;3.00;;;;;;;9.68;100.00;99463.35;108921;1256;59264;-72
2023/05/07 09:14:45;;;;;;;3.10;2.70;;;;;;;9.66;100.00;99467.55;109124;1256;67205;-72
2023/05/07 09:17:12;;;;;;;2.90;2.70;;;;;;;9.63;100.00;99467.18;108952;1256;60159;-72
2023/05/07 09:19:39;;;;;;;2.90;2.60;;;;;;;9.71;100.00;99465.82;109101;1256;63743;-71
2023/05/07 09:22:08;;;;;;;3.20;2.60;;;;;;;9.77;100.00;99468.15;109081;1256;59102;-72
2023/05/07 09:24:37;;;;;;;2.60;2.30;;;;;;;9.77;100.00;99471.36;109108;1256;59302;-72
2023/05/07 09:27:05;;;;;;;2.60;2.40;;;;;;;9.79;100.00;99469.30;109105;1256;64828;-72
2023/05/07 09:29:38;;;;;;;1.90;1.80;;;;;;;9.77;100.00;99477.90;109101;1256;59252;-72
2023/05/07 09:32:08;;;;;;;3.80;2.30;;;;;;;9.73;100.00;99480.44;109096;1256;64061;-71
2023/05/07 09:34:36;;;;;;;2.60;2.40;;;;;;;9.69;100.00;99480.65;109109;1256;59014;-72
2023/05/07 09:37:03;;;;;;;2.50;2.30;;;;;;;9.76;100.00;99480.45;109132;1256;58923;-72
2023/05/07 09:39:46;;;;;;;2.90;2.60;;;;;;;9.83;100.00;99479.88;109428;1252;64846;-71
2023/05/07 09:42:16;;;;;;;3.10;2.90;;;;;;;9.82;100.00;99484.55;109436;1251;59020;-71
2023/05/07 09:44:44;;;;;;;3.20;2.90;;;;;;;9.77;100.00;99489.27;109482;1251;63782;-71
2023/05/07 09:47:14;;;;;;;2.30;2.10;;;;;;;9.72;100.00;99488.17;109464;1252;58977;-71
2023/05/07 09:49:47;;;;;;;3.30;3.00;;;;;;;9.64;100.00;99495.83;109517;1252;59046;-71
2023/05/07 09:52:14;;;;;;;2.80;2.40;;;;;;;9.64;100.00;99493.54;109476;1252;64858;-71
2023/05/07 09:54:43;;;;;;;4.20;3.90;;;;;;;9.71;100.00;99495.09;109375;1252;60768;-71
2023/05/07 09:57:14;;;;;;;6.50;5.80;;;;;;;9.78;100.00;99500.59;109522;1252;62815;-71
2023/05/07 09:59:42;;;;;;;8.30;7.60;;;;;;;9.83;100.00;99503.69;109487;1252;58984;-71
2023/05/07 10:02:10;;;;;;;8.50;7.70;;;;;;;9.87;100.00;99502.39;109532;1252;59388;-71
2023/05/07 10:04:36;;;;;;;7.90;7.30;;;;;;;9.96;100.00;99509.87;109506;1253;64554;-71
2023/05/07 10:07:05;;;;;;;6.90;6.30;;;;;;;10.03;100.00;99517.98;109486;1252;59168;-71
2023/05/07 10:09:32;;;;;;;6.20;5.60;;;;;;;10.12;100.00;99517.13;109521;1251;62813;-72
2023/05/07 10:11:59;;;;;;;5.50;5.00;;;;;;;10.19;100.00;99517.98;109502;1252;59183;-74
2023/05/07 10:14:28;;;;;;;5.30;4.90;;;;;;;10.24;100.00;99516.28;109337;1252;59130;-72
2023/05/07 10:16:55;;;;;;;6.30;5.20;;;;;;;10.27;100.00;99518.77;109178;1251;66077;-72
2023/05/07 10:19:22;;;;;;;4.50;4.20;;;;;;;10.25;100.00;99525.08;109547;1252;59366;-71
2023/05/07 10:21:56;;;;;;;4.70;4.30;;;;;;;10.24;100.00;99523.73;109440;1252;65242;-72
2023/05/07 10:24:31;;;;;;;3.80;3.50;;;;;;;10.35;100.00;99526.50;109478;1252;59251;-72
2023/05/07 10:26:59;;;;;;;3.70;3.40;;;;;;;10.37;100.00;99527.98;109525;1252;58887;-71
2023/05/07 10:29:37;;;;;;;5.10;4.60;;;;;;;10.27;100.00;99531.06;109148;1252;65724;-72
2023/05/07 10:32:26;;;;;;;4.20;4.00;;;;;;;10.22;100.00;99534.14;109403;1253;59142;-72
2023/05/07 10:34:56;;;;;;;4.90;4.50;;;;;;;10.20;100.00;99534.78;109363;1252;64054;-72
2023/05/07 10:37:23;;;;;;;;;;;;;;;10.13;100.00;99541.41;109492;1253;58961;-72
2023/05/07 10:39:49;;;;;;;5.60;5.10;;;;;;;10.00;100.00;99546.56;109504;1252;59184;-71
2023/05/07 10:42:16;;;;;;;5.40;4.90;;;;;;;9.96;100.00;99547.33;109564;1252;64918;-72
2023/05/07 10:44:43;;;;;;;5.70;5.30;;;;;;;10.04;100.00;99551.48;109529;1253;60203;-72
2023/05/07 10:47:11;;;;;;;5.10;4.60;;;;;;;10.12;100.00;99551.03;109469;1252;64080;-73
2023/05/07 10:49:43;;;;;;;5.60;5.20;;;;;;;10.11;100.00;99553.02;109482;1253;58934;-71
2023/05/07 10:52:15;;;;;;;5.20;4.80;;;;;;;10.11;100.00;99551.25;109503;1253;59086;-72
2023/05/07 10:54:44;;;;;;;5.00;4.60;;;;;;;10.12;100.00;99551.55;109384;1253;66140;-72
2023/05/07 10:57:35;;;;;;;6.00;5.50;;;;;;;10.11;100.00;99549.66;109378;1252;59023;-72
2023/05/07 11:00:25;;;;;;;6.00;5.50;;;;;;;10.21;100.00;99551.06;109511;1252;64068;-72
2023/05/07 11:03:05;;;;;;;6.50;6.00;;;;;;;10.17;100.00;99548.43;108910;1259;59349;-71
2023/05/07 11:05:33;;;;;;;6.40;5.80;;;;;;;10.04;100.00;99552.58;108934;1259;59035;-72
2023/05/07 11:08:01;;;;;;;6.90;6.30;;;;;;;9.93;100.00;99559.36;108905;1259;66120;-73
2023/05/07 11:10:47;;;;;;;6.00;5.50;;;;;;;9.90;100.00;99561.14;108924;1259;60140;-72
2023/05/07 11:13:15;;;;;;;5.50;5.10;;;;;;;9.86;100.00;99561.52;108882;1259;64504;-72
2023/05/07 11:15:44;;;;;;;6.60;6.00;;;;;;;9.80;100.00;99560.77;108928;1259;59237;-72